Time;durP1;ratioP1;P1;durP2;ratioP2;P2;SDS_P1;SDS_P2;PMS_P1;PMS_P2;Temp;Humidity;BMP_temperature;BMP_pressure;BME280_temperature;BME280_humidity;BME280_pressure;Samples;Min_cycle;Max_cycle;Signal;HPM_P1;HPM_P2
2021/05/20 00:00:43;;;;;;;17.92;11.27;;;;;;;6.33;100.00;101751.31;5003373;28;20061;-78
2021/05/20 00:03:09;;;;;;;20.25;12.43;;;;;;;6.37;100.00;101749.34;5019669;28;20053;-79
2021/05/20 00:05:34;;;;;;;18.88;11.00;;;;;;;6.39;100.00;101758.75;5020047;28;20136;-79
2021/05/20 00:08:00;;;;;;;14.40;10.15;;;;;;;6.36;99.84;101758.09;5017952;28;20041;-79
2021/05/20 00:10:25;;;;;;;21.23;11.48;;;;;;;6.43;100.00;101759.38;5011896;28;20069;-78
2021/05/20 00:12:51;;;;;;;23.83;10.82;;;;;;;6.35;100.00;101754.66;5019804;28;20132;-77
2021/05/20 00:15:17;;;;;;;20.20;11.32;;;;;;;6.44;100.00;101755.84;4979407;28;20038;-78
2021/05/20 00:17:44;;;;;;;20.77;11.27;;;;;;;6.38;99.58;101766.66;5019481;28;20046;-77
2021/05/20 00:20:10;;;;;;;22.65;11.20;;;;;;;6.30;99.91;101761.06;5023238;28;20095;-79
2021/05/20 00:22:36;;;;;;;26.42;12.55;;;;;;;6.28;100.00;101755.13;5022558;28;20049;-78
2021/05/20 00:25:03;;;;;;;18.90;11.88;;;;;;;6.27;100.00;101761.25;5014908;28;20120;-78
2021/05/20 00:27:28;;;;;;;23.45;13.20;;;;;;;6.32;99.69;101756.59;5022124;28;20121;-78
2021/05/20 00:29:55;;;;;;;18.60;10.95;;;;;;;6.35;99.69;101764.25;5026450;28;20140;-79
2021/05/20 00:32:20;;;;;;;24.42;11.68;;;;;;;6.23;99.63;101756.25;5017948;28;20046;-77
2021/05/20 00:34:46;;;;;;;22.63;10.60;;;;;;;6.23;99.68;101756.25;5027527;28;20052;-77
2021/05/20 00:37:11;;;;;;;15.57;8.93;;;;;;;6.21;99.46;101759.84;4992797;28;20800;-78
2021/05/20 00:39:37;;;;;;;12.80;7.47;;;;;;;6.15;99.37;101752.41;4997637;28;20042;-77
2021/05/20 00:42:10;;;;;;;14.55;6.40;;;;;;;6.21;99.50;101765.06;5003930;28;20072;-77
2021/05/20 00:44:52;;;;;;;15.05;6.05;;;;;;;6.16;100.00;101774.91;5007518;28;20058;-77
2021/05/20 00:47:19;;;;;;;8.32;5.40;;;;;;;6.28;99.79;101768.16;5018851;28;20049;-78
2021/05/20 00:49:44;;;;;;;15.00;8.55;;;;;;;6.43;100.00;101764.59;5026042;28;20103;-77
2021/05/20 00:52:10;;;;;;;14.15;9.07;;;;;;;6.48;99.90;101772.13;5027256;28;20041;-77
2021/05/20 00:54:36;;;;;;;14.23;7.82;;;;;;;6.55;99.25;101773.44;5005651;28;20053;-77
2021/05/20 00:57:03;;;;;;;13.45;8.93;;;;;;;6.54;99.36;101777.81;5019796;28;20046;-77
2021/05/20 00:59:29;;;;;;;12.68;8.70;;;;;;;6.47;99.36;101771.28;5018291;28;20048;-77
2021/05/20 01:01:55;;;;;;;12.43;8.02;;;;;;;6.38;99.48;101767.47;5005819;28;20423;-77
2021/05/20 01:04:20;;;;;;;14.93;8.32;;;;;;;6.44;99.09;101774.06;5026927;28;20037;-77
2021/05/20 01:06:46;;;;;;;11.13;8.02;;;;;;;6.48;99.45;101772.97;5010135;28;20057;-78
2021/05/20 01:09:12;;;;;;;13.82;8.27;;;;;;;6.36;99.50;101771.13;5027518;28;20049;-79
2021/05/20 01:11:37;;;;;;;13.73;8.63;;;;;;;6.35;99.81;101772.91;5019929;28;20037;-78
2021/05/20 01:14:03;;;;;;;13.05;8.48;;;;;;;6.37;100.00;101773.63;5028166;28;20041;-78
2021/05/20 01:16:28;;;;;;;9.40;6.35;;;;;;;6.43;100.00;101788.06;5024059;28;20116;-77
2021/05/20 01:18:54;;;;;;;10.70;6.70;;;;;;;6.53;99.42;101793.53;5026629;28;20053;-78
2021/05/20 01:21:19;;;;;;;9.52;6.07;;;;;;;6.60;99.18;101794.84;5029560;28;20046;-80
2021/05/20 01:23:45;;;;;;;9.05;5.40;;;;;;;6.61;99.75;101804.31;5011762;28;20527;-79
2021/05/20 01:26:12;;;;;;;7.55;4.63;;;;;;;6.70;99.05;101798.53;5025219;28;20084;-79
2021/05/20 01:28:38;;;;;;;9.40;5.07;;;;;;;6.74;99.31;101805.25;5028214;28;20049;-78
2021/05/20 01:31:05;;;;;;;15.32;5.00;;;;;;;6.66;99.05;101802.28;5025642;28;20522;-81
2021/05/20 01:33:31;;;;;;;7.43;4.68;;;;;;;6.75;99.07;101804.31;5030248;28;20056;-77
2021/05/20 01:35:57;;;;;;;9.25;5.28;;;;;;;6.89;98.96;101810.44;5004962;28;20038;-80
2021/05/20 01:41:06;;;;;;;10.15;3.67;;;;;;;7.11;96.45;101813.34;5014405;28;20055;-77
2021/05/20 01:43:32;;;;;;;10.93;3.83;;;;;;;7.18;97.49;101824.25;5028896;28;20037;-78
2021/05/20 01:45:59;;;;;;;6.82;4.00;;;;;;;7.20;96.74;101822.38;5023051;28;20076;-76
2021/05/20 01:48:27;;;;;;;6.32;3.50;;;;;;;7.35;95.36;101825.78;5017209;28;20523;-79
2021/05/20 01:51:02;;;;;;;7.70;3.40;;;;;;;7.35;97.13;101820.56;5010343;28;20512;-80
2021/05/20 01:53:28;;;;;;;5.70;4.03;;;;;;;7.39;96.18;101816.81;5016613;28;20512;-78
2021/05/20 01:55:53;;;;;;;10.95;4.20;;;;;;;7.35;96.47;101810.94;5012702;28;20034;-79
2021/05/20 01:58:19;;;;;;;7.10;3.47;;;;;;;7.47;94.28;101814.53;5016687;28;20071;-79
2021/05/20 02:00:44;;;;;;;5.65;3.67;;;;;;;7.44;96.20;101822.59;5049209;28;20044;-81
2021/05/20 02:03:10;;;;;;;7.57;4.50;;;;;;;7.35;96.79;101810.94;5031050;28;20132;-80
2021/05/20 02:05:36;;;;;;;6.25;4.18;;;;;;;7.43;96.61;101822.69;5008013;28;20048;-81
2021/05/20 02:08:01;;;;;;;6.28;3.80;;;;;;;7.51;95.43;101826.44;5004082;28;20041;-80
2021/05/20 02:10:28;;;;;;;5.82;3.67;;;;;;;7.53;92.37;101823.75;5021438;28;20042;-79
2021/05/20 02:12:53;;;;;;;12.00;4.35;;;;;;;7.56;94.41;101824.38;5026683;28;20128;-77
2021/05/20 02:15:19;;;;;;;10.23;4.10;;;;;;;7.55;94.33;101811.41;5028788;28;20132;-80
2021/05/20 02:17:44;;;;;;;8.20;3.75;;;;;;;7.54;95.79;101813.19;5045274;28;20057;-81
2021/05/20 02:20:11;;;;;;;5.63;3.83;;;;;;;7.52;95.20;101816.88;5029002;28;20123;-80
2021/05/20 02:22:36;;;;;;;9.63;4.28;;;;;;;7.51;95.52;101817.78;5023268;28;20139;-81
2021/05/20 02:25:03;;;;;;;7.32;4.40;;;;;;;7.48;95.73;101810.13;5029461;28;20476;-81
2021/05/20 02:27:29;;;;;;;8.95;4.47;;;;;;;7.42;95.74;101808.75;5028620;28;20104;-80
2021/05/20 02:29:55;;;;;;;5.00;3.65;;;;;;;7.37;95.72;101811.69;5026808;28;20192;-80
2021/05/20 02:32:20;;;;;;;4.47;3.25;;;;;;;7.53;94.07;101816.72;5027601;28;20042;-79
2021/05/20 02:34:46;;;;;;;4.18;3.30;;;;;;;7.49;94.63;101811.81;5026976;28;20045;-80
2021/05/20 02:37:12;;;;;;;4.72;3.22;;;;;;;7.36;95.11;101819.63;5022303;28;20347;-80
2021/05/20 02:39:38;;;;;;;4.20;3.10;;;;;;;7.32;95.24;101816.38;5028557;28;20049;-79
2021/05/20 02:42:04;;;;;;;3.65;3.05;;;;;;;7.27;94.81;101820.19;5013659;28;20080;-81
2021/05/20 02:44:29;;;;;;;5.47;3.00;;;;;;;7.09;95.41;101812.63;5028094;28;20423;-80
2021/05/20 02:46:55;;;;;;;12.00;3.15;;;;;;;7.07;95.31;101827.53;5027426;28;20048;-80
2021/05/20 02:49:22;;;;;;;4.63;2.90;;;;;;;6.97;95.75;101822.06;5027314;28;20053;-79
2021/05/20 02:51:47;;;;;;;4.22;2.92;;;;;;;6.89;95.98;101820.88;5026165;28;20478;-82
2021/05/20 02:54:13;;;;;;;7.65;2.70;;;;;;;6.82;95.98;101815.22;5035229;28;20075;-79
2021/05/20 02:56:39;;;;;;;3.65;2.67;;;;;;;6.83;95.93;101822.09;5024788;28;20059;-79
2021/05/20 02:59:05;;;;;;;5.00;2.92;;;;;;;6.81;96.15;101818.75;5038194;28;20136;-80
2021/05/20 03:01:30;;;;;;;2.85;2.65;;;;;;;6.77;96.68;101814.66;5028546;28;20469;-80
2021/05/20 03:03:56;;;;;;;3.67;2.40;;;;;;;6.89;96.52;101829.53;5027509;28;20129;-79
2021/05/20 03:06:22;;;;;;;4.35;2.70;;;;;;;6.98;96.57;101822.91;5025358;28;20045;-81
2021/05/20 03:08:48;;;;;;;2.95;2.70;;;;;;;7.02;96.80;101819.16;5029043;28;20835;-80
2021/05/20 03:11:13;;;;;;;4.28;2.78;;;;;;;7.09;97.00;101823.06;5018181;28;20042;-79
2021/05/20 03:13:39;;;;;;;5.38;2.90;;;;;;;7.01;97.04;101813.13;5028491;28;20045;-80
2021/05/20 03:16:04;;;;;;;6.32;2.90;;;;;;;7.09;97.44;101827.44;5004339;28;20107;-79
2021/05/20 03:18:30;;;;;;;4.05;3.17;;;;;;;7.08;97.47;101829.19;5035160;28;20041;-79
2021/05/20 03:20:55;;;;;;;6.78;3.95;;;;;;;7.01;97.21;101823.53;5026427;28;20413;-81
2021/05/20 03:23:21;;;;;;;4.63;3.63;;;;;;;7.00;97.35;101831.47;5019497;28;20049;-82
2021/05/20 03:25:46;;;;;;;7.15;3.25;;;;;;;6.93;97.32;101822.34;5008463;28;20066;-81
2021/05/20 03:28:12;;;;;;;7.53;3.50;;;;;;;6.88;97.48;101838.28;4995983;28;20065;-80
2021/05/20 03:30:38;;;;;;;9.73;4.10;;;;;;;6.80;97.97;101830.13;5028467;28;20044;-80
2021/05/20 03:33:03;;;;;;;5.65;3.80;;;;;;;6.77;97.40;101836.34;5027261;28;20140;-79
2021/05/20 03:35:29;;;;;;;9.93;3.92;;;;;;;6.71;97.44;101841.94;5007677;28;20044;-78
2021/05/20 03:37:55;;;;;;;5.63;4.32;;;;;;;6.76;97.82;101837.28;5025351;28;20091;-83
2021/05/20 03:40:20;;;;;;;7.85;3.65;;;;;;;6.75;98.27;101835.59;5022003;28;20251;-79
2021/05/20 03:42:46;;;;;;;7.15;4.47;;;;;;;6.77;98.11;101835.50;4994624;28;20049;-80
2021/05/20 03:45:12;;;;;;;5.72;4.10;;;;;;;6.71;98.58;101834.13;5023811;28;20099;-80
2021/05/20 03:47:39;;;;;;;9.65;5.07;;;;;;;6.80;98.75;101830.13;5027778;28;20551;-78
2021/05/20 03:50:05;;;;;;;7.22;5.22;;;;;;;6.85;98.60;101838.47;5030777;28;20053;-80
2021/05/20 03:52:31;;;;;;;8.63;5.57;;;;;;;6.85;98.68;101830.66;5025454;28;20049;-80
2021/05/20 03:54:56;;;;;;;14.50;6.10;;;;;;;6.86;98.82;101828.91;5020339;28;20088;-80
2021/05/20 03:57:22;;;;;;;6.43;5.10;;;;;;;6.87;99.08;101836.59;5022407;28;20052;-80
2021/05/20 03:59:47;;;;;;;10.93;6.22;;;;;;;6.72;99.20;101817.53;5019072;28;20111;-79
2021/05/20 04:02:13;;;;;;;14.15;7.22;;;;;;;6.79;98.82;101831.88;5040330;28;20470;-80
2021/05/20 04:04:38;;;;;;;13.82;6.80;;;;;;;6.72;98.96;101829.75;5012969;28;20034;-79
2021/05/20 04:07:04;;;;;;;13.10;6.72;;;;;;;6.66;98.89;101828.34;5031158;28;20477;-79
2021/05/20 04:09:29;;;;;;;17.50;7.30;;;;;;;6.61;99.32;101831.25;5030560;28;20056;-80
2021/05/20 04:12:00;;;;;;;13.05;7.65;;;;;;;6.54;99.28;101816.91;5023425;28;20045;-78
2021/05/20 04:14:25;;;;;;;11.52;7.43;;;;;;;6.51;99.16;101824.91;5028280;28;20084;-80
2021/05/20 04:16:52;;;;;;;11.05;7.45;;;;;;;6.46;99.39;101821.75;5015247;28;20069;-80
2021/05/20 04:19:17;;;;;;;13.10;8.00;;;;;;;6.36;99.33;101815.41;5014219;28;20048;-80
2021/05/20 04:21:44;;;;;;;11.95;8.43;;;;;;;6.42;99.11;101825.47;5030782;28;20049;-79
2021/05/20 04:24:09;;;;;;;14.10;8.43;;;;;;;6.43;99.77;101835.81;5011546;28;20077;-80
2021/05/20 04:26:35;;;;;;;12.77;8.57;;;;;;;6.50;99.51;101830.22;5010851;28;20135;-78
2021/05/20 04:29:01;;;;;;;11.93;8.82;;;;;;;6.51;99.68;101830.13;5028805;28;20042;-81
2021/05/20 04:31:26;;;;;;;17.50;10.23;;;;;;;6.63;99.78;101836.38;5030866;28;20094;-81
2021/05/20 04:33:52;;;;;;;18.98;13.32;;;;;;;6.84;99.54;101844.63;5030101;28;20662;-79
2021/05/20 04:36:17;;;;;;;17.95;11.95;;;;;;;6.89;99.47;101842.56;5014016;28;20037;-79
2021/05/20 04:38:43;;;;;;;25.50;13.30;;;;;;;7.22;98.95;101850.03;5026331;28;20520;-80
2021/05/20 04:41:09;;;;;;;16.52;12.18;;;;;;;7.35;99.39;101844.06;5011518;28;20700;-80
2021/05/20 04:43:34;;;;;;;16.48;11.65;;;;;;;7.55;98.67;101850.59;5026303;28;20041;-79
2021/05/20 04:46:00;;;;;;;18.88;12.75;;;;;;;7.78;97.73;101851.72;5039210;28;20052;-78
2021/05/20 04:48:26;;;;;;;21.42;14.63;;;;;;;7.95;96.97;101864.47;5019591;28;20037;-81
2021/05/20 04:50:52;;;;;;;18.80;14.18;;;;;;;8.08;95.28;101861.03;5046279;28;20122;-80
2021/05/20 04:53:18;;;;;;;19.52;13.25;;;;;;;8.23;95.28;101859.16;5029518;28;20521;-80
2021/05/20 04:55:44;;;;;;;19.20;12.98;;;;;;;8.29;94.52;101864.84;5024904;28;20037;-80
2021/05/20 04:58:09;;;;;;;20.67;13.73;;;;;;;8.35;94.95;101869.63;5021078;28;20067;-81
2021/05/20 05:00:35;;;;;;;18.63;13.10;;;;;;;8.48;94.94;101867.06;5027499;28;20100;-80
2021/05/20 05:03:00;;;;;;;22.10;12.90;;;;;;;8.48;94.98;101868.84;5028578;28;20107;-78
2021/05/20 05:05:26;;;;;;;20.35;13.30;;;;;;;8.54;95.31;101873.66;5030783;28;20668;-78
2021/05/20 05:07:51;;;;;;;27.23;12.93;;;;;;;8.53;95.50;101867.59;5014072;28;20397;-80
2021/05/20 05:10:17;;;;;;;18.42;12.65;;;;;;;8.53;94.93;101867.59;5028287;28;20049;-79
2021/05/20 05:12:42;;;;;;;20.85;12.93;;;;;;;8.67;94.21;101871.03;5025456;28;20037;-80
2021/05/20 05:15:08;;;;;;;20.92;12.32;;;;;;;8.60;94.29;101857.53;5030431;28;20060;-77
2021/05/20 05:17:34;;;;;;;16.30;11.43;;;;;;;8.71;95.16;101882.94;5029029;28;20045;-81
2021/05/20 05:19:59;;;;;;;15.48;11.57;;;;;;;8.87;94.90;101880.09;5030321;28;20083;-80
2021/05/20 05:22:25;;;;;;;19.80;11.50;;;;;;;8.90;92.80;101877.25;5009858;28;21335;-81
2021/05/20 05:24:50;;;;;;;15.85;10.57;;;;;;;8.89;93.25;101872.97;5011228;28;20115;-82
2021/05/20 05:27:16;;;;;;;14.93;10.25;;;;;;;8.89;90.56;101876.44;5017010;28;20538;-80
2021/05/20 05:29:44;;;;;;;16.92;10.40;;;;;;;8.84;92.74;101872.47;5029839;28;20081;-80
2021/05/20 05:32:10;;;;;;;14.77;10.15;;;;;;;8.88;91.87;101868.69;5030793;28;20142;-81
2021/05/20 05:34:35;;;;;;;15.63;10.55;;;;;;;8.75;92.80;101868.69;5027639;28;20041;-80
2021/05/20 05:37:02;;;;;;;19.25;10.70;;;;;;;8.70;92.66;101883.88;5031063;28;20384;-79
2021/05/20 05:39:28;;;;;;;16.52;11.40;;;;;;;8.72;91.49;101876.75;5028064;28;20545;-80
2021/05/20 05:41:53;;;;;;;27.45;11.15;;;;;;;8.82;92.04;101879.59;5029710;28;20135;-80
2021/05/20 05:44:19;;;;;;;14.45;10.05;;;;;;;8.86;92.05;101881.03;5028521;28;20112;-79
2021/05/20 05:46:44;;;;;;;15.45;10.57;;;;;;;8.89;91.66;101881.66;5028660;28;20144;-80
2021/05/20 05:49:13;;;;;;;16.35;10.45;;;;;;;8.94;91.74;101876.91;5027435;28;20037;-78
2021/05/20 05:51:41;;;;;;;17.70;10.70;;;;;;;9.01;90.26;101881.75;5026151;28;20045;-80
2021/05/20 05:54:08;;;;;;;16.70;11.20;;;;;;;9.03;91.13;101890.31;5029730;28;20041;-79
2021/05/20 05:56:34;;;;;;;12.48;9.43;;;;;;;9.04;91.67;101882.38;5028861;28;20136;-80
2021/05/20 05:58:59;;;;;;;14.90;9.90;;;;;;;8.99;91.79;101871.38;5029258;28;20124;-79
2021/05/20 06:01:25;;;;;;;12.70;10.57;;;;;;;9.21;92.34;101880.31;5028285;28;20046;-80
2021/05/20 06:03:50;;;;;;;14.93;10.52;;;;;;;9.40;91.31;101882.44;5023079;28;20057;-80
2021/05/20 06:06:16;;;;;;;11.88;9.15;;;;;;;9.66;90.49;101891.03;5010607;28;20050;-79
2021/05/20 06:08:41;;;;;;;17.23;10.82;;;;;;;9.63;91.27;101893.88;5027812;28;20046;-80
2021/05/20 06:11:07;;;;;;;14.32;9.68;;;;;;;9.68;89.73;101892.59;5022375;28;20042;-80
2021/05/20 06:13:32;;;;;;;14.13;10.02;;;;;;;9.64;91.98;101882.44;5024415;28;20062;-78
2021/05/20 06:15:58;;;;;;;16.50;9.65;;;;;;;9.89;90.49;101889.34;5020509;28;20042;-80
2021/05/20 06:18:23;;;;;;;12.43;9.68;;;;;;;10.00;88.72;101892.00;5023009;28;20105;-79
2021/05/20 06:20:50;;;;;;;12.00;8.23;;;;;;;10.05;85.64;101900.34;5023045;28;20491;-79
2021/05/20 06:23:16;;;;;;;15.75;8.98;;;;;;;9.96;87.47;101903.66;5010351;28;20068;-79
2021/05/20 06:25:44;;;;;;;15.45;8.85;;;;;;;9.72;87.97;101904.53;5018267;28;20041;-79
2021/05/20 06:28:10;;;;;;;12.70;9.02;;;;;;;9.66;89.94;101904.97;5008379;28;20058;-80
2021/05/20 06:30:36;;;;;;;15.10;9.57;;;;;;;9.62;90.75;101905.31;5021631;28;20045;-80
2021/05/20 06:33:02;;;;;;;15.10;9.77;;;;;;;9.88;92.54;101906.84;5035969;28;20069;-75
2021/05/20 06:35:27;;;;;;;13.75;8.77;;;;;;;10.48;88.36;101912.88;5028225;28;20045;-78
2021/05/20 06:37:53;;;;;;;10.90;8.00;;;;;;;10.78;83.20;101910.63;5016720;28;20049;-78
2021/05/20 06:40:18;;;;;;;13.02;7.63;;;;;;;10.79;85.08;101909.66;5024699;28;20049;-79
2021/05/20 06:42:44;;;;;;;12.32;7.60;;;;;;;10.61;83.20;101902.28;5015830;28;20107;-78
2021/05/20 06:45:11;;;;;;;13.95;7.72;;;;;;;10.50;86.66;101910.97;5027332;28;20053;-81
2021/05/20 06:47:36;;;;;;;12.23;7.47;;;;;;;10.51;85.52;101915.25;4996214;28;20161;-79
2021/05/20 06:50:03;;;;;;;15.95;8.50;;;;;;;10.42;84.26;101892.34;5022917;28;20141;-79
2021/05/20 06:52:29;;;;;;;12.93;8.52;;;;;;;10.54;84.65;101911.56;5025938;28;20067;-79
2021/05/20 06:54:54;;;;;;;15.32;7.70;;;;;;;10.50;83.14;101905.72;5027135;28;20053;-80
2021/05/20 06:57:29;;;;;;;10.43;7.97;;;;;;;10.48;85.66;101918.13;5027064;28;20045;-79
2021/05/20 07:00:00;;;;;;;15.20;8.75;;;;;;;10.67;85.94;101916.72;5020861;28;20536;-78
2021/05/20 07:02:28;;;;;;;11.88;7.90;;;;;;;10.91;83.10;101908.72;4993805;28;20041;-79
2021/05/20 07:04:54;;;;;;;11.80;7.43;;;;;;;11.37;81.59;101914.75;5021872;28;20123;-79
2021/05/20 07:07:20;;;;;;;11.68;7.57;;;;;;;11.54;79.76;101908.13;5006891;28;20460;-79
2021/05/20 07:09:47;;;;;;;9.25;6.72;;;;;;;11.53;81.84;101915.19;5017281;28;20046;-80
2021/05/20 07:12:13;;;;;;;10.63;7.05;;;;;;;11.40;81.43;101910.06;5017952;28;20045;-79
2021/05/20 07:14:39;;;;;;;8.95;6.80;;;;;;;11.26;83.00;101910.34;5028278;28;20045;-79
2021/05/20 07:17:06;;;;;;;8.25;5.65;;;;;;;11.13;81.52;101909.66;5024286;28;20582;-79
2021/05/20 07:19:32;;;;;;;8.55;5.50;;;;;;;11.01;81.26;101904.41;5008084;28;20471;-76
2021/05/20 07:21:58;;;;;;;10.45;5.85;;;;;;;11.13;80.07;101907.03;5021919;28;20044;-79
2021/05/20 07:24:24;;;;;;;7.32;5.20;;;;;;;11.57;78.79;101908.72;5009270;28;20049;-80
2021/05/20 07:26:49;;;;;;;11.07;6.30;;;;;;;11.92;78.10;101901.56;5009897;28;20042;-78
2021/05/20 07:29:15;;;;;;;10.27;6.72;;;;;;;11.78;77.02;101910.56;5028833;28;20057;-76
2021/05/20 07:31:41;;;;;;;8.48;6.20;;;;;;;11.58;80.70;101913.00;5025200;28;20099;-78
2021/05/20 07:34:07;;;;;;;9.20;5.75;;;;;;;11.41;79.13;101914.34;5027621;28;20060;-79
2021/05/20 07:36:33;;;;;;;9.00;5.70;;;;;;;11.18;79.56;101912.75;5026689;28;20099;-79
2021/05/20 07:38:59;;;;;;;10.23;5.95;;;;;;;10.96;82.21;101917.06;5026313;28;20049;-78
2021/05/20 07:41:27;;;;;;;8.35;5.45;;;;;;;10.82;83.09;101919.94;5020038;28;20041;-79
2021/05/20 07:43:53;;;;;;;7.75;5.63;;;;;;;11.06;80.95;101920.63;5026941;28;20555;-80
2021/05/20 07:46:19;;;;;;;12.18;5.72;;;;;;;11.57;78.96;101907.88;5022569;28;20132;-81
2021/05/20 07:48:44;;;;;;;10.68;5.38;;;;;;;12.36;78.57;101912.81;5003378;28;20156;-79
2021/05/20 07:51:11;;;;;;;8.25;4.20;;;;;;;12.82;73.33;101907.03;5026229;28;20124;-79
2021/05/20 07:53:36;;;;;;;5.68;4.10;;;;;;;12.81;73.79;101909.84;5020510;28;20530;-80
2021/05/20 07:56:03;;;;;;;4.75;3.65;;;;;;;12.76;72.47;101912.03;5027068;28;20046;-78
2021/05/20 07:58:28;;;;;;;6.35;3.83;;;;;;;12.51;71.11;101913.28;5025766;28;20057;-77
2021/05/20 08:00:55;;;;;;;7.22;3.70;;;;;;;12.23;75.95;101921.72;5023787;28;20057;-78
2021/05/20 08:03:27;;;;;;;8.80;3.60;;;;;;;12.07;75.21;101913.44;5026815;28;20100;-79
2021/05/20 08:10:53;;;;;;;8.30;4.10;;;;;;;12.29;77.13;101907.22;5022170;28;20049;-81
2021/05/20 08:13:19;;;;;;;8.90;3.30;;;;;;;12.11;73.79;101906.97;5021841;28;20041;-79
2021/05/20 08:15:45;;;;;;;6.95;3.35;;;;;;;12.22;75.29;101912.16;5016563;28;20057;-79
2021/05/20 08:18:11;;;;;;;5.15;2.90;;;;;;;12.57;75.94;101902.25;5024161;28;20660;-77
2021/05/20 08:20:37;;;;;;;6.65;2.70;;;;;;;12.55;73.54;101907.63;5024661;28;20045;-80
2021/05/20 08:23:02;;;;;;;3.63;2.80;;;;;;;12.59;73.82;101901.13;5026418;28;20045;-78
2021/05/20 08:25:28;;;;;;;6.32;2.40;;;;;;;12.76;71.82;101901.50;5017144;28;20512;-79
2021/05/20 08:27:53;;;;;;;4.35;2.17;;;;;;;12.77;71.58;101897.88;5006280;28;20155;-80
2021/05/20 08:30:20;;;;;;;3.97;2.10;;;;;;;12.56;72.09;101893.50;5016782;28;20119;-79
2021/05/20 08:32:46;;;;;;;4.45;2.38;;;;;;;12.80;69.45;101902.88;5024823;28;20111;-78
2021/05/20 08:35:12;;;;;;;4.15;2.50;;;;;;;12.81;67.77;101896.66;5026532;28;20042;-80
2021/05/20 08:37:39;;;;;;;4.70;2.20;;;;;;;12.61;70.32;101886.03;5027093;28;20065;-79
2021/05/20 08:40:08;;;;;;;7.07;2.00;;;;;;;12.90;69.89;101905.56;5023241;28;20504;-79
2021/05/20 08:42:33;;;;;;;6.55;2.22;;;;;;;13.44;69.90;101897.25;5020058;28;20045;-79
2021/05/20 08:45:26;;;;;;;3.80;2.17;;;;;;;13.99;69.88;101911.69;5020672;28;20098;-78
2021/05/20 08:47:54;;;;;;;5.00;1.70;;;;;;;14.18;64.30;101901.13;5023513;28;20052;-78
2021/05/20 08:50:22;;;;;;;3.30;1.67;;;;;;;14.43;63.27;101892.72;5022192;28;20381;-79
2021/05/20 08:52:49;;;;;;;4.85;1.98;;;;;;;14.15;62.01;101875.00;5023790;28;20474;-79
2021/05/20 08:55:20;;;;;;;3.78;1.70;;;;;;;14.66;68.06;101893.25;5008638;28;20701;-78
2021/05/20 08:57:46;;;;;;;2.55;1.85;;;;;;;15.02;62.14;101882.78;5021807;28;20132;-78
2021/05/20 09:00:18;;;;;;;4.20;1.40;;;;;;;15.41;59.51;101880.72;5027233;28;20111;-79
2021/05/20 09:02:44;;;;;;;4.95;2.10;;;;;;;15.35;58.57;101887.44;5028998;28;20566;-79
2021/05/20 09:05:18;;;;;;;2.60;1.90;;;;;;;15.42;60.54;101892.94;5028732;28;20138;-79
2021/05/20 09:07:56;;;;;;;3.22;1.80;;;;;;;15.72;60.81;101877.66;5023972;28;20153;-79
2021/05/20 09:10:26;;;;;;;5.70;1.63;;;;;;;15.62;60.01;101876.94;5015146;28;20053;-79
2021/05/20 09:13:01;;;;;;;5.05;1.70;;;;;;;15.72;58.75;101869.75;5014003;28;20038;-77
2021/05/20 09:15:30;;;;;;;3.13;1.45;;;;;;;15.44;60.54;101880.41;5035304;28;20030;-77
2021/05/20 09:18:07;;;;;;;2.88;1.75;;;;;;;15.35;59.12;101868.94;5037677;28;20276;-75
2021/05/20 09:20:34;;;;;;;3.80;1.70;;;;;;;15.00;61.97;101867.06;5050090;28;20034;-78
2021/05/20 09:23:10;;;;;;;5.15;1.40;;;;;;;14.70;59.92;101881.41;5043218;28;20080;-79
2021/05/20 09:25:37;;;;;;;4.63;1.60;;;;;;;14.29;64.90;101878.19;5020253;28;20068;-82
2021/05/20 09:28:05;;;;;;;2.78;1.30;;;;;;;14.77;61.76;101872.75;5034021;28;20046;-79
2021/05/20 09:30:33;;;;;;;3.80;1.50;;;;;;;14.85;61.79;101877.28;5015064;28;20038;-79
2021/05/20 09:33:07;;;;;;;3.45;1.40;;;;;;;15.00;59.57;101869.72;5029823;28;20451;-81
2021/05/20 09:35:34;;;;;;;1.40;1.30;;;;;;;15.30;62.23;101871.19;5032914;28;20053;-80
2021/05/20 09:38:12;;;;;;;3.40;1.35;;;;;;;15.14;59.39;101871.00;5024358;28;20067;-80
2021/05/20 09:40:41;;;;;;;3.35;1.38;;;;;;;14.96;58.47;101863.88;5019247;28;20219;-79
2021/05/20 09:43:31;;;;;;;4.78;1.10;;;;;;;14.63;60.27;101867.94;5034577;28;21138;-81
2021/05/20 09:45:58;;;;;;;4.63;1.42;;;;;;;14.36;64.83;101877.47;5032648;28;20037;-77
2021/05/20 09:48:27;;;;;;;4.05;1.40;;;;;;;14.10;64.29;101866.69;5034678;28;20507;-79
2021/05/20 09:50:55;;;;;;;2.72;1.30;;;;;;;14.14;60.73;101868.06;5032591;28;20060;-79
2021/05/20 09:53:27;;;;;;;2.70;1.08;;;;;;;14.07;65.41;101869.63;5015943;28;20071;-79
2021/05/20 09:55:55;;;;;;;5.27;1.27;;;;;;;14.07;64.09;101868.78;5014748;28;20037;-80
2021/05/20 09:58:28;;;;;;;1.77;1.10;;;;;;;14.15;66.71;101866.28;5012267;28;20338;-79
2021/05/20 10:00:55;;;;;;;5.22;1.70;;;;;;;14.65;63.11;101871.25;5026221;28;20099;-80
2021/05/20 10:03:22;;;;;;;4.00;1.60;;;;;;;14.86;62.73;101871.06;5040291;28;20066;-79
2021/05/20 10:05:56;;;;;;;3.90;1.65;;;;;;;15.69;60.09;101860.31;5041630;28;20033;-79
2021/05/20 10:08:24;;;;;;;3.10;1.50;;;;;;;15.87;58.12;101859.47;5013256;28;20056;-78
2021/05/20 10:10:55;;;;;;;3.03;1.75;;;;;;;15.96;56.79;101864.66;5017938;28;20041;-80
2021/05/20 10:13:23;;;;;;;3.95;1.80;;;;;;;15.59;58.54;101864.84;5030235;28;20492;-79
2021/05/20 10:15:49;;;;;;;2.55;1.60;;;;;;;15.18;62.21;101861.78;5029002;28;20037;-80
2021/05/20 10:18:26;;;;;;;3.60;1.77;;;;;;;14.90;62.41;101859.19;5029371;28;20116;-79
2021/05/20 10:21:01;;;;;;;4.38;1.38;;;;;;;15.28;60.46;101856.47;5028815;28;20376;-78
2021/05/20 10:23:27;;;;;;;7.20;1.50;;;;;;;16.15;58.02;101845.09;5023074;28;20866;-78
2021/05/20 10:25:55;;;;;;;3.08;1.30;;;;;;;17.15;57.04;101843.72;5027700;28;20041;-79
2021/05/20 10:28:22;;;;;;;2.10;1.45;;;;;;;17.57;52.49;101843.56;5046727;28;20523;-80
2021/05/20 10:30:53;;;;;;;3.58;1.60;;;;;;;17.03;53.57;101846.66;5027755;28;20463;-78
2021/05/20 10:33:25;;;;;;;2.78;1.70;;;;;;;16.30;55.88;101855.94;5048181;28;20048;-79
2021/05/20 10:35:52;;;;;;;2.88;1.63;;;;;;;15.58;57.77;101855.25;5050977;28;20445;-80
2021/05/20 10:38:28;;;;;;;6.72;2.10;;;;;;;14.52;62.62;101852.25;5046671;28;20065;-81
2021/05/20 10:41:19;;;;;;;10.02;2.50;;;;;;;13.82;71.24;101856.06;5026976;28;20076;-78
2021/05/20 10:43:50;;;;;;;4.55;2.65;;;;;;;13.33;72.89;101859.66;5025632;28;20590;-80
2021/05/20 10:46:19;;;;;;;6.18;2.50;;;;;;;13.09;75.06;101845.06;5038489;28;20091;-81
2021/05/20 10:48:52;;;;;;;4.65;2.75;;;;;;;13.19;76.94;101842.44;5021407;28;20148;-81
2021/05/20 10:51:18;;;;;;;4.45;2.97;;;;;;;14.04;76.02;101843.53;5040029;28;20037;-82
2021/05/20 10:53:54;;;;;;;7.53;3.08;;;;;;;14.79;71.30;101822.44;5029456;28;20053;-78
2021/05/20 10:56:25;;;;;;;4.45;2.53;;;;;;;15.67;72.52;101834.97;5033861;28;20070;-79
2021/05/20 10:58:51;;;;;;;7.72;2.03;;;;;;;16.61;68.32;101828.94;5033500;28;20569;-81
2021/05/20 11:01:20;;;;;;;4.60;1.67;;;;;;;16.67;54.79;101833.63;5028650;28;20041;-79
2021/05/20 11:03:50;;;;;;;5.07;1.50;;;;;;;16.94;56.62;101821.13;5031121;28;20812;-80
2021/05/20 11:06:20;;;;;;;3.55;1.60;;;;;;;17.32;60.85;101825.00;5029827;28;20046;-77
2021/05/20 11:08:45;;;;;;;3.92;1.50;;;;;;;16.87;57.91;101817.47;5023636;28;20042;-82
2021/05/20 11:11:22;;;;;;;2.00;1.40;;;;;;;16.13;64.63;101820.63;5009115;28;20048;-84
2021/05/20 11:13:48;;;;;;;4.35;1.50;;;;;;;15.54;64.70;101814.25;5007729;28;20046;-80
2021/05/20 11:16:28;;;;;;;4.95;2.28;;;;;;;14.91;67.93;101807.19;5008720;28;20033;-79
2021/05/20 11:19:20;;;;;;;4.72;2.00;;;;;;;14.68;71.54;101814.72;5009019;28;20828;-80
2021/05/20 11:21:55;;;;;;;3.53;1.60;;;;;;;14.67;67.30;101805.09;5022042;28;20496;-80
2021/05/20 11:24:26;;;;;;;3.78;1.67;;;;;;;14.58;72.26;101801.56;5037719;28;20101;-80
2021/05/20 11:26:53;;;;;;;;;;;;;;;14.69;71.85;101797.88;5024691;28;20030;-80
2021/05/20 11:29:25;;;;;;;2.80;1.40;;;;;;;14.49;64.73;101789.22;5024802;28;19924;-78
2021/05/20 11:31:58;;;;;;;3.92;1.10;;;;;;;14.38;67.22;101803.41;5030164;28;20033;-81